sensor_id;sensor_type;location;lat;lon;timestamp;P1;durP1;ratioP1;P2;durP2;ratioP2
36745;SDS011;22715;52.182;21.206;2022-11-15T00:00:10;21.30;;;13.40;;
36745;SDS011;22715;52.182;21.206;2022-11-15T00:02:36;27.50;;;13.70;;
36745;SDS011;22715;52.182;21.206;2022-11-15T00:05:01;28.60;;;15.18;;
36745;SDS011;22715;52.182;21.206;2022-11-15T00:07:26;25.92;;;14.77;;
36745;SDS011;22715;52.182;21.206;2022-11-15T00:09:52;25.35;;;14.48;;
36745;SDS011;22715;52.182;21.206;2022-11-15T00:12:17;23.25;;;13.73;;
36745;SDS011;22715;52.182;21.206;2022-11-15T00:14:43;28.13;;;14.90;;
36745;SDS011;22715;52.182;21.206;2022-11-15T00:17:08;23.65;;;14.07;;
36745;SDS011;22715;52.182;21.206;2022-11-15T00:19:34;23.30;;;15.00;;
36745;SDS011;22715;52.182;21.206;2022-11-15T00:22:01;18.67;;;12.23;;
36745;SDS011;22715;52.182;21.206;2022-11-15T00:24:29;22.90;;;13.60;;
36745;SDS011;22715;52.182;21.206;2022-11-15T00:26:55;25.95;;;16.27;;
36745;SDS011;22715;52.182;21.206;2022-11-15T00:29:20;23.45;;;14.05;;
36745;SDS011;22715;52.182;21.206;2022-11-15T00:31:45;27.17;;;14.80;;
36745;SDS011;22715;52.182;21.206;2022-11-15T00:34:11;24.55;;;14.25;;
36745;SDS011;22715;52.182;21.206;2022-11-15T00:36:36;24.67;;;15.18;;
36745;SDS011;22715;52.182;21.206;2022-11-15T00:39:03;28.17;;;15.48;;
36745;SDS011;22715;52.182;21.206;2022-11-15T00:41:30;24.75;;;15.95;;
36745;SDS011;22715;52.182;21.206;2022-11-15T00:43:55;26.80;;;16.55;;
36745;SDS011;22715;52.182;21.206;2022-11-15T00:46:21;28.80;;;15.85;;
36745;SDS011;22715;52.182;21.206;2022-11-15T00:48:46;25.90;;;16.17;;
36745;SDS011;22715;52.182;21.206;2022-11-15T00:51:12;22.65;;;13.90;;
36745;SDS011;22715;52.182;21.206;2022-11-15T00:53:37;26.30;;;16.30;;
36745;SDS011;22715;52.182;21.206;2022-11-15T00:56:02;22.50;;;15.88;;
36745;SDS011;22715;52.182;21.206;2022-11-15T00:58:28;34.53;;;16.25;;
36745;SDS011;22715;52.182;21.206;2022-11-15T01:00:53;30.95;;;17.10;;
36745;SDS011;22715;52.182;21.206;2022-11-15T01:03:19;29.27;;;15.35;;
36745;SDS011;22715;52.182;21.206;2022-11-15T01:05:45;25.75;;;17.20;;
36745;SDS011;22715;52.182;21.206;2022-11-15T01:08:14;27.25;;;13.27;;
36745;SDS011;22715;52.182;21.206;2022-11-15T01:10:39;22.65;;;14.10;;
36745;SDS011;22715;52.182;21.206;2022-11-15T01:13:05;29.05;;;17.88;;
36745;SDS011;22715;52.182;21.206;2022-11-15T01:15:30;23.20;;;14.65;;
36745;SDS011;22715;52.182;21.206;2022-11-15T01:17:55;26.17;;;15.30;;
36745;SDS011;22715;52.182;21.206;2022-11-15T01:20:21;29.63;;;15.55;;
36745;SDS011;22715;52.182;21.206;2022-11-15T01:22:46;25.23;;;15.18;;
36745;SDS011;22715;52.182;21.206;2022-11-15T01:25:17;24.92;;;14.85;;
36745;SDS011;22715;52.182;21.206;2022-11-15T01:27:42;32.45;;;17.23;;
36745;SDS011;22715;52.182;21.206;2022-11-15T01:30:08;28.00;;;17.55;;
36745;SDS011;22715;52.182;21.206;2022-11-15T01:32:33;33.60;;;20.00;;
36745;SDS011;22715;52.182;21.206;2022-11-15T01:34:59;31.00;;;18.35;;
36745;SDS011;22715;52.182;21.206;2022-11-15T01:37:24;36.15;;;18.42;;
36745;SDS011;22715;52.182;21.206;2022-11-15T01:39:49;30.95;;;17.42;;
36745;SDS011;22715;52.182;21.206;2022-11-15T01:42:15;34.90;;;19.35;;
36745;SDS011;22715;52.182;21.206;2022-11-15T01:44:46;33.15;;;17.95;;
36745;SDS011;22715;52.182;21.206;2022-11-15T01:47:16;27.83;;;17.80;;
36745;SDS011;22715;52.182;21.206;2022-11-15T01:49:46;30.35;;;17.33;;
36745;SDS011;22715;52.182;21.206;2022-11-15T01:52:16;35.80;;;19.73;;
36745;SDS011;22715;52.182;21.206;2022-11-15T01:54:43;34.22;;;19.67;;
36745;SDS011;22715;52.182;21.206;2022-11-15T01:57:09;31.92;;;16.30;;
36745;SDS011;22715;52.182;21.206;2022-11-15T01:59:35;31.77;;;19.65;;
36745;SDS011;22715;52.182;21.206;2022-11-15T02:02:01;33.35;;;19.05;;
36745;SDS011;22715;52.182;21.206;2022-11-15T02:04:28;34.22;;;19.33;;
36745;SDS011;22715;52.182;21.206;2022-11-15T02:06:54;41.67;;;19.90;;
36745;SDS011;22715;52.182;21.206;2022-11-15T02:09:20;36.83;;;21.27;;
36745;SDS011;22715;52.182;21.206;2022-11-15T02:11:45;37.85;;;19.40;;
36745;SDS011;22715;52.182;21.206;2022-11-15T02:14:11;41.65;;;21.15;;
36745;SDS011;22715;52.182;21.206;2022-11-15T02:21:44;40.90;;;21.20;;
36745;SDS011;22715;52.182;21.206;2022-11-15T02:32:28;35.50;;;18.95;;
36745;SDS011;22715;52.182;21.206;2022-11-15T02:35:02;32.65;;;18.30;;
36745;SDS011;22715;52.182;21.206;2022-11-15T02:37:45;34.33;;;18.20;;
36745;SDS011;22715;52.182;21.206;2022-11-15T02:43:19;29.58;;;17.52;;
36745;SDS011;22715;52.182;21.206;2022-11-15T02:47:08;33.05;;;18.67;;
36745;SDS011;22715;52.182;21.206;2022-11-15T02:49:20;34.10;;;19.27;;
36745;SDS011;22715;52.182;21.206;2022-11-15T02:51:46;34.15;;;19.65;;
36745;SDS011;22715;52.182;21.206;2022-11-15T02:54:23;32.42;;;19.58;;
36745;SDS011;22715;52.182;21.206;2022-11-15T02:56:51;41.35;;;19.23;;
36745;SDS011;22715;52.182;21.206;2022-11-15T03:01:50;31.85;;;18.58;;
36745;SDS011;22715;52.182;21.206;2022-11-15T03:04:23;39.28;;;17.50;;
36745;SDS011;22715;52.182;21.206;2022-11-15T03:06:55;29.48;;;16.05;;
36745;SDS011;22715;52.182;21.206;2022-11-15T03:09:35;31.75;;;18.15;;
36745;SDS011;22715;52.182;21.206;2022-11-15T03:14:35;37.95;;;16.98;;
36745;SDS011;22715;52.182;21.206;2022-11-15T03:17:22;32.33;;;17.65;;
36745;SDS011;22715;52.182;21.206;2022-11-15T03:19:50;34.22;;;16.33;;
36745;SDS011;22715;52.182;21.206;2022-11-15T03:22:16;39.10;;;19.98;;
36745;SDS011;22715;52.182;21.206;2022-11-15T03:24:43;30.75;;;17.80;;
36745;SDS011;22715;52.182;21.206;2022-11-15T03:27:12;35.10;;;19.27;;
36745;SDS011;22715;52.182;21.206;2022-11-15T03:29:41;35.28;;;19.33;;
36745;SDS011;22715;52.182;21.206;2022-11-15T03:35:03;32.83;;;17.95;;
36745;SDS011;22715;52.182;21.206;2022-11-15T03:40:01;34.35;;;20.08;;
36745;SDS011;22715;52.182;21.206;2022-11-15T03:43:10;35.08;;;19.58;;
36745;SDS011;22715;52.182;21.206;2022-11-15T03:45:22;28.73;;;16.98;;
36745;SDS011;22715;52.182;21.206;2022-11-15T03:50:15;30.85;;;17.25;;
36745;SDS011;22715;52.182;21.206;2022-11-15T03:52:41;34.40;;;18.50;;
36745;SDS011;22715;52.182;21.206;2022-11-15T03:55:08;34.38;;;18.27;;
36745;SDS011;22715;52.182;21.206;2022-11-15T03:57:34;37.88;;;21.23;;
36745;SDS011;22715;52.182;21.206;2022-11-15T03:59:59;35.78;;;19.23;;
36745;SDS011;22715;52.182;21.206;2022-11-15T04:02:25;40.33;;;20.02;;
36745;SDS011;22715;52.182;21.206;2022-11-15T04:04:50;33.45;;;16.45;;
36745;SDS011;22715;52.182;21.206;2022-11-15T04:07:15;29.83;;;18.60;;
36745;SDS011;22715;52.182;21.206;2022-11-15T04:09:45;33.63;;;19.73;;
36745;SDS011;22715;52.182;21.206;2022-11-15T04:14:56;36.10;;;18.35;;
36745;SDS011;22715;52.182;21.206;2022-11-15T04:17:43;34.40;;;18.17;;
36745;SDS011;22715;52.182;21.206;2022-11-15T04:22:54;32.58;;;18.33;;
36745;SDS011;22715;52.182;21.206;2022-11-15T04:25:38;29.85;;;17.92;;
36745;SDS011;22715;52.182;21.206;2022-11-15T04:28:04;30.98;;;17.88;;
36745;SDS011;22715;52.182;21.206;2022-11-15T04:30:29;30.20;;;17.15;;
36745;SDS011;22715;52.182;21.206;2022-11-15T04:32:54;27.88;;;16.38;;
36745;SDS011;22715;52.182;21.206;2022-11-15T04:35:20;35.70;;;19.23;;
36745;SDS011;22715;52.182;21.206;2022-11-15T04:37:45;30.73;;;20.92;;
36745;SDS011;22715;52.182;21.206;2022-11-15T04:40:11;36.90;;;18.63;;
36745;SDS011;22715;52.182;21.206;2022-11-15T04:42:36;40.40;;;20.75;;
36745;SDS011;22715;52.182;21.206;2022-11-15T04:45:01;36.67;;;18.60;;
36745;SDS011;22715;52.182;21.206;2022-11-15T04:47:27;38.65;;;17.35;;
36745;SDS011;22715;52.182;21.206;2022-11-15T04:49:53;34.78;;;19.17;;
36745;SDS011;22715;52.182;21.206;2022-11-15T04:52:18;30.60;;;18.00;;
36745;SDS011;22715;52.182;21.206;2022-11-15T04:54:43;38.17;;;18.13;;
36745;SDS011;22715;52.182;21.206;2022-11-15T04:57:09;35.10;;;20.25;;
36745;SDS011;22715;52.182;21.206;2022-11-15T04:59:37;31.33;;;17.77;;
36745;SDS011;22715;52.182;21.206;2022-11-15T05:02:02;34.30;;;19.23;;
36745;SDS011;22715;52.182;21.206;2022-11-15T05:04:28;32.25;;;17.77;;
36745;SDS011;22715;52.182;21.206;2022-11-15T05:06:54;36.03;;;18.70;;
36745;SDS011;22715;52.182;21.206;2022-11-15T05:09:20;34.63;;;19.73;;
36745;SDS011;22715;52.182;21.206;2022-11-15T05:11:46;42.25;;;19.83;;
36745;SDS011;22715;52.182;21.206;2022-11-15T05:14:11;34.78;;;18.80;;
36745;SDS011;22715;52.182;21.206;2022-11-15T05:16:37;37.33;;;19.00;;
36745;SDS011;22715;52.182;21.206;2022-11-15T05:19:03;39.38;;;21.05;;
36745;SDS011;22715;52.182;21.206;2022-11-15T05:21:28;37.90;;;18.98;;
36745;SDS011;22715;52.182;21.206;2022-11-15T05:23:58;36.80;;;20.27;;
36745;SDS011;22715;52.182;21.206;2022-11-15T05:26:27;40.88;;;19.80;;
36745;SDS011;22715;52.182;21.206;2022-11-15T05:28:56;43.20;;;20.55;;
36745;SDS011;22715;52.182;21.206;2022-11-15T05:31:21;35.35;;;20.38;;
36745;SDS011;22715;52.182;21.206;2022-11-15T05:33:48;36.15;;;18.85;;
36745;SDS011;22715;52.182;21.206;2022-11-15T05:36:17;36.03;;;18.17;;
36745;SDS011;22715;52.182;21.206;2022-11-15T05:38:43;36.40;;;20.92;;
36745;SDS011;22715;52.182;21.206;2022-11-15T05:41:08;41.17;;;19.55;;
36745;SDS011;22715;52.182;21.206;2022-11-15T05:43:35;41.22;;;19.02;;
36745;SDS011;22715;52.182;21.206;2022-11-15T05:46:00;34.38;;;18.77;;
36745;SDS011;22715;52.182;21.206;2022-11-15T05:48:26;38.40;;;19.25;;
36745;SDS011;22715;52.182;21.206;2022-11-15T05:50:52;38.97;;;20.17;;
36745;SDS011;22715;52.182;21.206;2022-11-15T05:53:19;34.10;;;18.70;;
36745;SDS011;22715;52.182;21.206;2022-11-15T05:55:45;43.42;;;19.67;;
36745;SDS011;22715;52.182;21.206;2022-11-15T05:58:11;41.40;;;20.20;;
36745;SDS011;22715;52.182;21.206;2022-11-15T06:00:36;36.13;;;18.38;;
36745;SDS011;22715;52.182;21.206;2022-11-15T06:03:02;39.20;;;21.63;;
36745;SDS011;22715;52.182;21.206;2022-11-15T06:05:27;45.65;;;21.17;;
36745;SDS011;22715;52.182;21.206;2022-11-15T06:07:56;36.13;;;17.48;;
36745;SDS011;22715;52.182;21.206;2022-11-15T06:10:22;33.63;;;20.65;;
36745;SDS011;22715;52.182;21.206;2022-11-15T06:13:00;43.70;;;20.95;;
36745;SDS011;22715;52.182;21.206;2022-11-15T06:15:26;51.75;;;22.88;;
36745;SDS011;22715;52.182;21.206;2022-11-15T06:18:00;42.10;;;19.65;;
36745;SDS011;22715;52.182;21.206;2022-11-15T06:20:26;38.60;;;19.50;;
36745;SDS011;22715;52.182;21.206;2022-11-15T06:22:58;42.28;;;22.50;;
36745;SDS011;22715;52.182;21.206;2022-11-15T06:31:09;42.15;;;21.60;;
36745;SDS011;22715;52.182;21.206;2022-11-15T06:34:19;43.67;;;21.83;;
36745;SDS011;22715;52.182;21.206;2022-11-15T06:36:53;40.97;;;21.05;;
36745;SDS011;22715;52.182;21.206;2022-11-15T06:39:18;38.85;;;18.33;;
36745;SDS011;22715;52.182;21.206;2022-11-15T06:41:43;45.55;;;19.65;;
36745;SDS011;22715;52.182;21.206;2022-11-15T06:44:12;47.25;;;21.35;;
36745;SDS011;22715;52.182;21.206;2022-11-15T06:46:46;42.45;;;23.20;;
36745;SDS011;22715;52.182;21.206;2022-11-15T06:49:12;47.90;;;22.88;;
36745;SDS011;22715;52.182;21.206;2022-11-15T06:51:38;50.17;;;23.27;;
36745;SDS011;22715;52.182;21.206;2022-11-15T06:56:44;46.57;;;22.03;;
36745;SDS011;22715;52.182;21.206;2022-11-15T06:59:10;38.65;;;19.20;;
36745;SDS011;22715;52.182;21.206;2022-11-15T07:01:35;37.97;;;20.17;;
36745;SDS011;22715;52.182;21.206;2022-11-15T07:04:04;50.50;;;23.70;;
36745;SDS011;22715;52.182;21.206;2022-11-15T07:06:30;44.40;;;21.65;;
36745;SDS011;22715;52.182;21.206;2022-11-15T07:08:57;48.60;;;21.95;;
36745;SDS011;22715;52.182;21.206;2022-11-15T07:11:22;38.83;;;19.70;;
36745;SDS011;22715;52.182;21.206;2022-11-15T07:13:54;46.17;;;21.92;;
36745;SDS011;22715;52.182;21.206;2022-11-15T07:16:19;47.72;;;22.33;;
36745;SDS011;22715;52.182;21.206;2022-11-15T07:18:46;44.22;;;21.95;;
36745;SDS011;22715;52.182;21.206;2022-11-15T07:21:11;50.78;;;20.35;;
36745;SDS011;22715;52.182;21.206;2022-11-15T07:23:40;43.92;;;22.10;;
36745;SDS011;22715;52.182;21.206;2022-11-15T07:26:06;51.90;;;19.88;;
36745;SDS011;22715;52.182;21.206;2022-11-15T07:28:32;56.33;;;22.95;;
36745;SDS011;22715;52.182;21.206;2022-11-15T07:30:57;47.88;;;20.30;;
36745;SDS011;22715;52.182;21.206;2022-11-15T07:33:22;37.53;;;18.40;;
36745;SDS011;22715;52.182;21.206;2022-11-15T07:35:48;37.20;;;18.20;;
36745;SDS011;22715;52.182;21.206;2022-11-15T07:38:18;37.97;;;18.83;;
36745;SDS011;22715;52.182;21.206;2022-11-15T07:40:46;46.50;;;20.63;;
36745;SDS011;22715;52.182;21.206;2022-11-15T07:43:12;38.83;;;19.15;;
36745;SDS011;22715;52.182;21.206;2022-11-15T07:45:48;44.10;;;19.20;;
36745;SDS011;22715;52.182;21.206;2022-11-15T07:48:13;38.03;;;17.35;;
36745;SDS011;22715;52.182;21.206;2022-11-15T07:50:42;36.08;;;17.77;;
36745;SDS011;22715;52.182;21.206;2022-11-15T07:53:07;37.03;;;17.17;;
36745;SDS011;22715;52.182;21.206;2022-11-15T07:55:33;46.00;;;20.48;;
36745;SDS011;22715;52.182;21.206;2022-11-15T07:58:06;34.97;;;18.85;;
36745;SDS011;22715;52.182;21.206;2022-11-15T08:00:32;41.05;;;18.23;;
36745;SDS011;22715;52.182;21.206;2022-11-15T08:05:50;37.95;;;16.67;;
36745;SDS011;22715;52.182;21.206;2022-11-15T08:08:16;35.08;;;16.95;;
36745;SDS011;22715;52.182;21.206;2022-11-15T08:13:14;31.83;;;15.73;;
36745;SDS011;22715;52.182;21.206;2022-11-15T08:15:57;36.38;;;17.55;;
36745;SDS011;22715;52.182;21.206;2022-11-15T08:18:23;46.38;;;21.23;;
36745;SDS011;22715;52.182;21.206;2022-11-15T08:20:48;51.67;;;21.05;;
36745;SDS011;22715;52.182;21.206;2022-11-15T08:23:13;50.03;;;18.15;;
36745;SDS011;22715;52.182;21.206;2022-11-15T08:25:39;32.33;;;17.90;;
36745;SDS011;22715;52.182;21.206;2022-11-15T08:28:06;47.47;;;19.30;;
36745;SDS011;22715;52.182;21.206;2022-11-15T08:30:36;30.02;;;17.75;;
36745;SDS011;22715;52.182;21.206;2022-11-15T08:33:02;35.78;;;17.25;;
36745;SDS011;22715;52.182;21.206;2022-11-15T08:35:29;30.50;;;15.85;;
36745;SDS011;22715;52.182;21.206;2022-11-15T08:38:09;26.48;;;16.67;;
36745;SDS011;22715;52.182;21.206;2022-11-15T08:43:23;41.50;;;18.42;;
36745;SDS011;22715;52.182;21.206;2022-11-15T08:48:18;29.42;;;17.42;;
36745;SDS011;22715;52.182;21.206;2022-11-15T08:50:44;32.42;;;16.80;;
36745;SDS011;22715;52.182;21.206;2022-11-15T08:55:58;44.33;;;20.17;;
36745;SDS011;22715;52.182;21.206;2022-11-15T08:58:27;38.28;;;16.42;;
36745;SDS011;22715;52.182;21.206;2022-11-15T09:00:52;38.30;;;18.08;;
36745;SDS011;22715;52.182;21.206;2022-11-15T09:03:17;34.15;;;17.67;;
36745;SDS011;22715;52.182;21.206;2022-11-15T09:05:43;30.48;;;15.68;;
36745;SDS011;22715;52.182;21.206;2022-11-15T09:08:08;29.83;;;16.50;;
36745;SDS011;22715;52.182;21.206;2022-11-15T09:10:44;27.83;;;14.98;;
36745;SDS011;22715;52.182;21.206;2022-11-15T09:13:09;28.23;;;15.10;;
36745;SDS011;22715;52.182;21.206;2022-11-15T09:15:44;28.73;;;14.43;;
36745;SDS011;22715;52.182;21.206;2022-11-15T09:18:09;24.10;;;12.85;;
36745;SDS011;22715;52.182;21.206;2022-11-15T09:20:39;26.02;;;13.30;;
36745;SDS011;22715;52.182;21.206;2022-11-15T09:23:04;29.00;;;13.52;;
36745;SDS011;22715;52.182;21.206;2022-11-15T09:25:30;29.02;;;14.07;;
36745;SDS011;22715;52.182;21.206;2022-11-15T09:27:56;25.75;;;15.60;;
36745;SDS011;22715;52.182;21.206;2022-11-15T09:30:22;21.45;;;14.23;;
36745;SDS011;22715;52.182;21.206;2022-11-15T09:32:47;24.23;;;14.07;;
36745;SDS011;22715;52.182;21.206;2022-11-15T09:35:13;30.55;;;16.17;;
36745;SDS011;22715;52.182;21.206;2022-11-15T09:37:38;25.55;;;13.43;;
36745;SDS011;22715;52.182;21.206;2022-11-15T09:40:03;28.73;;;16.35;;
36745;SDS011;22715;52.182;21.206;2022-11-15T09:45:34;30.23;;;15.13;;
36745;SDS011;22715;52.182;21.206;2022-11-15T09:50:31;28.27;;;16.30;;
36745;SDS011;22715;52.182;21.206;2022-11-15T09:53:02;28.05;;;18.00;;
36745;SDS011;22715;52.182;21.206;2022-11-15T09:55:35;32.20;;;16.55;;
36745;SDS011;22715;52.182;21.206;2022-11-15T09:58:26;36.95;;;17.83;;
36745;SDS011;22715;52.182;21.206;2022-11-15T10:00:52;27.30;;;16.65;;
36745;SDS011;22715;52.182;21.206;2022-11-15T10:06:09;24.70;;;15.00;;
36745;SDS011;22715;52.182;21.206;2022-11-15T10:11:05;27.25;;;14.80;;
36745;SDS011;22715;52.182;21.206;2022-11-15T10:13:41;26.50;;;15.48;;
36745;SDS011;22715;52.182;21.206;2022-11-15T10:24:14;28.17;;;14.63;;
36745;SDS011;22715;52.182;21.206;2022-11-15T10:26:49;21.85;;;12.73;;
36745;SDS011;22715;52.182;21.206;2022-11-15T10:29:22;28.00;;;14.52;;
36745;SDS011;22715;52.182;21.206;2022-11-15T10:31:47;26.40;;;14.10;;
36745;SDS011;22715;52.182;21.206;2022-11-15T10:36:45;25.50;;;16.05;;
36745;SDS011;22715;52.182;21.206;2022-11-15T10:39:12;25.33;;;14.93;;
36745;SDS011;22715;52.182;21.206;2022-11-15T10:41:39;25.85;;;15.30;;
36745;SDS011;22715;52.182;21.206;2022-11-15T10:44:16;30.88;;;14.27;;
36745;SDS011;22715;52.182;21.206;2022-11-15T10:46:46;24.52;;;14.30;;
36745;SDS011;22715;52.182;21.206;2022-11-15T10:51:40;23.73;;;14.20;;
36745;SDS011;22715;52.182;21.206;2022-11-15T10:54:06;24.05;;;14.65;;
36745;SDS011;22715;52.182;21.206;2022-11-15T10:56:33;22.52;;;13.90;;
36745;SDS011;22715;52.182;21.206;2022-11-15T10:58:59;24.10;;;13.70;;
36745;SDS011;22715;52.182;21.206;2022-11-15T11:06:27;34.38;;;17.88;;
36745;SDS011;22715;52.182;21.206;2022-11-15T11:09:00;32.17;;;18.08;;
36745;SDS011;22715;52.182;21.206;2022-11-15T11:14:32;29.25;;;16.52;;
36745;SDS011;22715;52.182;21.206;2022-11-15T11:24:44;27.92;;;17.63;;
36745;SDS011;22715;52.182;21.206;2022-11-15T11:30:10;32.45;;;17.75;;
36745;SDS011;22715;52.182;21.206;2022-11-15T11:46:38;29.45;;;18.17;;
36745;SDS011;22715;52.182;21.206;2022-11-15T11:51:36;32.92;;;19.10;;
36745;SDS011;22715;52.182;21.206;2022-11-15T11:54:05;26.83;;;14.77;;
36745;SDS011;22715;52.182;21.206;2022-11-15T11:59:23;25.80;;;15.73;;
36745;SDS011;22715;52.182;21.206;2022-11-15T12:01:50;24.27;;;15.68;;
36745;SDS011;22715;52.182;21.206;2022-11-15T12:04:27;26.77;;;15.30;;
36745;SDS011;22715;52.182;21.206;2022-11-15T12:06:58;31.17;;;18.38;;
36745;SDS011;22715;52.182;21.206;2022-11-15T12:09:32;24.92;;;16.88;;
36745;SDS011;22715;52.182;21.206;2022-11-15T12:17:01;30.38;;;16.85;;
36745;SDS011;22715;52.182;21.206;2022-11-15T12:19:26;27.52;;;16.20;;
36745;SDS011;22715;52.182;21.206;2022-11-15T12:22:00;26.05;;;16.25;;
36745;SDS011;22715;52.182;21.206;2022-11-15T12:24:41;33.03;;;18.77;;
36745;SDS011;22715;52.182;21.206;2022-11-15T12:32:32;35.40;;;19.55;;
36745;SDS011;22715;52.182;21.206;2022-11-15T12:41:14;27.83;;;17.27;;
36745;SDS011;22715;52.182;21.206;2022-11-15T12:49:00;33.67;;;18.65;;
36745;SDS011;22715;52.182;21.206;2022-11-15T12:59:38;23.77;;;16.92;;
36745;SDS011;22715;52.182;21.206;2022-11-15T13:01:58;36.63;;;19.02;;
36745;SDS011;22715;52.182;21.206;2022-11-15T13:04:28;33.97;;;17.63;;
36745;SDS011;22715;52.182;21.206;2022-11-15T13:07:04;37.60;;;19.48;;
36745;SDS011;22715;52.182;21.206;2022-11-15T13:12:11;33.88;;;18.27;;
36745;SDS011;22715;52.182;21.206;2022-11-15T13:14:53;33.97;;;21.60;;
36745;SDS011;22715;52.182;21.206;2022-11-15T13:22:41;36.38;;;19.70;;
36745;SDS011;22715;52.182;21.206;2022-11-15T13:27:44;38.33;;;19.55;;
36745;SDS011;22715;52.182;21.206;2022-11-15T13:30:25;37.25;;;19.08;;
36745;SDS011;22715;52.182;21.206;2022-11-15T13:33:06;38.25;;;18.77;;
36745;SDS011;22715;52.182;21.206;2022-11-15T13:35:33;35.70;;;19.02;;
36745;SDS011;22715;52.182;21.206;2022-11-15T13:38:03;38.70;;;21.85;;
36745;SDS011;22715;52.182;21.206;2022-11-15T13:40:33;35.47;;;21.25;;
36745;SDS011;22715;52.182;21.206;2022-11-15T13:42:59;36.85;;;20.10;;
36745;SDS011;22715;52.182;21.206;2022-11-15T13:45:25;39.28;;;19.63;;
36745;SDS011;22715;52.182;21.206;2022-11-15T13:47:53;36.15;;;19.67;;
36745;SDS011;22715;52.182;21.206;2022-11-15T13:50:19;47.90;;;22.40;;
36745;SDS011;22715;52.182;21.206;2022-11-15T13:55:37;40.58;;;21.25;;
36745;SDS011;22715;52.182;21.206;2022-11-15T13:58:03;33.25;;;19.65;;
36745;SDS011;22715;52.182;21.206;2022-11-15T14:03:19;40.88;;;20.77;;
36745;SDS011;22715;52.182;21.206;2022-11-15T14:05:47;36.38;;;19.35;;
36745;SDS011;22715;52.182;21.206;2022-11-15T14:08:27;35.38;;;18.38;;
36745;SDS011;22715;52.182;21.206;2022-11-15T14:16:19;34.10;;;18.50;;
36745;SDS011;22715;52.182;21.206;2022-11-15T14:18:52;35.38;;;20.80;;
36745;SDS011;22715;52.182;21.206;2022-11-15T14:21:18;42.75;;;22.23;;
36745;SDS011;22715;52.182;21.206;2022-11-15T14:23:44;44.33;;;20.02;;
36745;SDS011;22715;52.182;21.206;2022-11-15T14:26:28;34.92;;;20.48;;
36745;SDS011;22715;52.182;21.206;2022-11-15T14:28:54;34.90;;;18.98;;
36745;SDS011;22715;52.182;21.206;2022-11-15T14:33:51;38.30;;;21.50;;
36745;SDS011;22715;52.182;21.206;2022-11-15T14:42:20;37.30;;;20.42;;
36745;SDS011;22715;52.182;21.206;2022-11-15T14:44:45;39.47;;;19.52;;
36745;SDS011;22715;52.182;21.206;2022-11-15T14:47:20;36.13;;;20.25;;
36745;SDS011;22715;52.182;21.206;2022-11-15T14:49:45;32.55;;;19.17;;
36745;SDS011;22715;52.182;21.206;2022-11-15T14:52:27;31.75;;;18.65;;
36745;SDS011;22715;52.182;21.206;2022-11-15T14:54:54;42.67;;;18.88;;
36745;SDS011;22715;52.182;21.206;2022-11-15T14:57:20;34.30;;;20.60;;
36745;SDS011;22715;52.182;21.206;2022-11-15T14:59:45;36.25;;;19.55;;
36745;SDS011;22715;52.182;21.206;2022-11-15T15:02:21;34.42;;;21.20;;
36745;SDS011;22715;52.182;21.206;2022-11-15T15:04:48;35.45;;;20.92;;
36745;SDS011;22715;52.182;21.206;2022-11-15T15:09:45;34.88;;;19.83;;
36745;SDS011;22715;52.182;21.206;2022-11-15T15:12:21;44.38;;;21.23;;
36745;SDS011;22715;52.182;21.206;2022-11-15T15:14:47;40.28;;;19.70;;
36745;SDS011;22715;52.182;21.206;2022-11-15T15:17:13;30.13;;;21.30;;
36745;SDS011;22715;52.182;21.206;2022-11-15T15:19:39;34.75;;;21.20;;
36745;SDS011;22715;52.182;21.206;2022-11-15T15:22:10;36.05;;;20.95;;
36745;SDS011;22715;52.182;21.206;2022-11-15T15:24:36;35.20;;;20.80;;
36745;SDS011;22715;52.182;21.206;2022-11-15T15:27:02;44.08;;;21.98;;
36745;SDS011;22715;52.182;21.206;2022-11-15T15:29:27;42.42;;;22.05;;
36745;SDS011;22715;52.182;21.206;2022-11-15T15:31:52;43.40;;;22.90;;
36745;SDS011;22715;52.182;21.206;2022-11-15T15:34:29;43.70;;;23.52;;
36745;SDS011;22715;52.182;21.206;2022-11-15T15:39:39;37.20;;;21.35;;
36745;SDS011;22715;52.182;21.206;2022-11-15T15:42:04;42.17;;;21.98;;
36745;SDS011;22715;52.182;21.206;2022-11-15T15:44:30;42.95;;;20.67;;
36745;SDS011;22715;52.182;21.206;2022-11-15T15:46:58;40.58;;;22.83;;
36745;SDS011;22715;52.182;21.206;2022-11-15T15:52:32;44.97;;;20.67;;
36745;SDS011;22715;52.182;21.206;2022-11-15T16:00:44;47.85;;;22.52;;
36745;SDS011;22715;52.182;21.206;2022-11-15T16:06:00;38.58;;;20.70;;
36745;SDS011;22715;52.182;21.206;2022-11-15T16:08:29;40.85;;;22.27;;
36745;SDS011;22715;52.182;21.206;2022-11-15T16:16:18;48.45;;;20.60;;
36745;SDS011;22715;52.182;21.206;2022-11-15T16:18:46;46.20;;;23.02;;
36745;SDS011;22715;52.182;21.206;2022-11-15T16:26:36;53.42;;;22.42;;
36745;SDS011;22715;52.182;21.206;2022-11-15T16:29:05;39.33;;;20.65;;
36745;SDS011;22715;52.182;21.206;2022-11-15T16:31:34;42.92;;;23.80;;
36745;SDS011;22715;52.182;21.206;2022-11-15T16:34:01;42.22;;;21.80;;
36745;SDS011;22715;52.182;21.206;2022-11-15T16:36:31;38.03;;;21.05;;
36745;SDS011;22715;52.182;21.206;2022-11-15T16:39:03;33.33;;;19.67;;
36745;SDS011;22715;52.182;21.206;2022-11-15T16:41:47;43.15;;;20.10;;
36745;SDS011;22715;52.182;21.206;2022-11-15T16:44:33;40.50;;;21.52;;
36745;SDS011;22715;52.182;21.206;2022-11-15T16:47:18;35.47;;;20.10;;
36745;SDS011;22715;52.182;21.206;2022-11-15T16:49:46;42.70;;;21.90;;
36745;SDS011;22715;52.182;21.206;2022-11-15T17:03:21;41.97;;;20.58;;
36745;SDS011;22715;52.182;21.206;2022-11-15T17:11:07;41.67;;;21.08;;
36745;SDS011;22715;52.182;21.206;2022-11-15T17:13:33;38.90;;;20.48;;
36745;SDS011;22715;52.182;21.206;2022-11-15T17:18:34;40.00;;;21.30;;
36745;SDS011;22715;52.182;21.206;2022-11-15T17:37:29;45.33;;;23.88;;
36745;SDS011;22715;52.182;21.206;2022-11-15T17:45:05;43.63;;;22.20;;
36745;SDS011;22715;52.182;21.206;2022-11-15T17:52:49;43.30;;;21.63;;
36745;SDS011;22715;52.182;21.206;2022-11-15T17:57:51;48.17;;;20.65;;
36745;SDS011;22715;52.182;21.206;2022-11-15T18:00:16;38.47;;;21.83;;
36745;SDS011;22715;52.182;21.206;2022-11-15T18:02:44;40.22;;;20.20;;
36745;SDS011;22715;52.182;21.206;2022-11-15T18:05:10;36.92;;;20.00;;
36745;SDS011;22715;52.182;21.206;2022-11-15T18:10:45;35.75;;;16.75;;
36745;SDS011;22715;52.182;21.206;2022-11-15T18:13:11;38.00;;;19.67;;
36745;SDS011;22715;52.182;21.206;2022-11-15T18:15:36;42.92;;;19.20;;
36745;SDS011;22715;52.182;21.206;2022-11-15T18:18:02;36.35;;;18.80;;
36745;SDS011;22715;52.182;21.206;2022-11-15T18:20:31;39.05;;;19.83;;
36745;SDS011;22715;52.182;21.206;2022-11-15T18:23:00;30.80;;;16.67;;
36745;SDS011;22715;52.182;21.206;2022-11-15T18:25:25;38.20;;;17.73;;
36745;SDS011;22715;52.182;21.206;2022-11-15T18:27:51;39.00;;;17.92;;
36745;SDS011;22715;52.182;21.206;2022-11-15T18:30:19;34.22;;;17.90;;
36745;SDS011;22715;52.182;21.206;2022-11-15T18:32:53;36.85;;;19.10;;